createdAt,value
2023-04-02T00:00:46.125Z,551.00
2023-04-02T00:01:36.169Z,546.00
2023-04-02T00:02:26.296Z,553.00
2023-04-02T00:03:16.643Z,545.00
2023-04-02T00:04:06.679Z,554.00
2023-04-02T00:04:56.675Z,556.00
2023-04-02T00:05:46.712Z,550.00
2023-04-02T00:06:36.780Z,555.00
2023-04-02T00:07:26.851Z,556.00
2023-04-02T00:08:16.919Z,552.00
2023-04-02T00:09:07.028Z,554.00
2023-04-02T00:09:57.038Z,559.00
2023-04-02T00:10:47.072Z,548.00
2023-04-02T00:11:37.128Z,554.00
2023-04-02T00:12:27.198Z,546.00
2023-04-02T00:13:17.260Z,549.00
2023-04-02T00:14:07.324Z,555.00
2023-04-02T00:14:57.419Z,553.00
2023-04-02T00:15:47.431Z,548.00
2023-04-02T00:16:37.541Z,557.00
2023-04-02T00:17:27.568Z,551.00
2023-04-02T00:18:17.665Z,550.00
2023-04-02T00:19:07.825Z,548.00
2023-04-02T00:19:57.883Z,551.00
2023-04-02T00:20:47.911Z,549.00
2023-04-02T00:21:39.552Z,550.00
2023-04-02T00:22:28.014Z,550.00
2023-04-02T00:23:18.077Z,550.00
2023-04-02T00:24:08.142Z,551.00
2023-04-02T00:24:58.246Z,554.00
2023-04-02T00:25:48.249Z,552.00
2023-04-02T00:26:38.315Z,555.00
2023-04-02T00:27:28.389Z,555.00
2023-04-02T00:28:18.415Z,557.00
2023-04-02T00:29:08.744Z,561.00
2023-04-02T00:29:58.816Z,557.00
2023-04-02T00:30:48.849Z,554.00
2023-04-02T00:31:39.196Z,556.00
2023-04-02T00:32:29.268Z,566.00
2023-04-02T00:33:19.273Z,562.00
2023-04-02T00:34:09.355Z,560.00
2023-04-02T00:34:59.421Z,560.00
2023-04-02T00:35:49.485Z,555.00
2023-04-02T00:36:39.517Z,561.00
2023-04-02T00:37:29.593Z,558.00
2023-04-02T00:38:19.616Z,561.00
2023-04-02T00:39:09.687Z,556.00
2023-04-02T00:39:59.774Z,555.00
2023-04-02T00:40:49.992Z,555.00
2023-04-02T00:41:40.042Z,548.00
2023-04-02T00:42:30.107Z,561.00
2023-04-02T00:43:20.386Z,565.00
2023-04-02T00:44:10.452Z,558.00
2023-04-02T00:45:00.541Z,553.00
2023-04-02T00:45:50.564Z,554.00
2023-04-02T00:46:40.620Z,554.00
2023-04-02T00:47:30.746Z,559.00
2023-04-02T00:48:20.761Z,558.00
2023-04-02T00:49:10.875Z,557.00
2023-04-02T00:50:00.872Z,557.00
2023-04-02T00:50:50.904Z,559.00
2023-04-02T00:51:40.970Z,559.00
2023-04-02T00:52:31.209Z,563.00
2023-04-02T00:53:21.262Z,558.00
2023-04-02T00:54:11.329Z,554.00
2023-04-02T00:55:01.683Z,559.00
2023-04-02T00:55:51.732Z,558.00
2023-04-02T00:56:41.778Z,556.00
2023-04-02T00:57:32.171Z,555.00
2023-04-02T00:58:22.168Z,560.00
2023-04-02T00:59:12.245Z,559.00
2023-04-02T01:00:02.545Z,560.00
2023-04-02T01:00:52.567Z,570.00
2023-04-02T01:01:42.782Z,559.00
2023-04-02T01:02:32.762Z,560.00
2023-04-02T01:03:22.987Z,552.00
2023-04-02T01:04:12.823Z,553.00
2023-04-02T01:05:02.891Z,551.00
2023-04-02T01:05:52.896Z,553.00
2023-04-02T01:06:43.169Z,558.00
2023-04-02T01:07:33.240Z,554.00
2023-04-02T01:08:23.308Z,560.00
2023-04-02T01:09:13.367Z,557.00
2023-04-02T01:10:03.458Z,554.00
2023-04-02T01:10:53.487Z,557.00
2023-04-02T01:11:43.575Z,550.00
2023-04-02T01:12:33.651Z,553.00
2023-04-02T01:13:23.700Z,551.00
2023-04-02T01:14:13.747Z,554.00
2023-04-02T01:15:03.831Z,548.00
2023-04-02T01:15:54.109Z,553.00
2023-04-02T01:16:44.093Z,557.00
2023-04-02T01:17:34.202Z,550.00
2023-04-02T01:18:24.181Z,552.00
2023-04-02T01:19:14.251Z,547.00
2023-04-02T01:20:04.346Z,557.00
2023-04-02T01:20:54.388Z,543.00
2023-04-02T01:21:44.440Z,554.00
2023-04-02T01:22:34.516Z,551.00
2023-04-02T01:23:24.535Z,547.00
2023-04-02T01:24:14.615Z,553.00
2023-04-02T01:25:04.909Z,550.00
2023-04-02T01:25:54.931Z,556.00
2023-04-02T01:26:44.997Z,544.00
2023-04-02T01:27:35.197Z,555.00
2023-04-02T01:28:25.243Z,555.00
2023-04-02T01:29:15.183Z,561.00
2023-04-02T01:30:05.255Z,559.00
2023-04-02T01:30:55.282Z,548.00
2023-04-02T01:31:45.453Z,559.00
2023-04-02T01:32:35.470Z,551.00
2023-04-02T01:33:25.414Z,551.00
2023-04-02T01:34:15.500Z,552.00
2023-04-02T01:35:05.548Z,547.00
2023-04-02T01:35:55.620Z,548.00
2023-04-02T01:36:45.603Z,553.00
2023-04-02T01:37:35.672Z,550.00
2023-04-02T01:38:25.731Z,552.00
2023-04-02T01:39:15.798Z,548.00
2023-04-02T01:40:05.891Z,550.00
2023-04-02T01:40:56.196Z,552.00
2023-04-02T01:41:46.252Z,559.00
2023-04-02T01:42:36.340Z,553.00
2023-04-02T01:43:26.384Z,550.00
2023-04-02T01:44:16.420Z,545.00
2023-04-02T01:45:06.513Z,542.00
2023-04-02T01:45:56.537Z,554.00
2023-04-02T01:46:46.624Z,557.00
2023-04-02T01:47:36.664Z,550.00
2023-04-02T01:48:26.675Z,547.00
2023-04-02T01:49:16.742Z,543.00
2023-04-02T01:50:07.056Z,557.00
2023-04-02T01:50:57.116Z,540.00
2023-04-02T01:51:47.171Z,548.00
2023-04-02T01:52:37.500Z,553.00
2023-04-02T01:53:27.561Z,548.00
2023-04-02T01:54:17.643Z,543.00
2023-04-02T01:55:07.950Z,540.00
2023-04-02T01:55:57.966Z,539.00
2023-04-02T01:56:48.034Z,526.00
2023-04-02T01:57:38.093Z,537.00
2023-04-02T01:58:28.154Z,550.00
2023-04-02T01:59:18.242Z,555.00
2023-04-02T02:00:08.259Z,555.00
2023-04-02T02:00:58.360Z,548.00
2023-04-02T02:01:48.410Z,539.00
2023-04-02T02:02:38.668Z,552.00
2023-04-02T02:03:28.476Z,548.00
2023-04-02T02:04:18.781Z,534.00
2023-04-02T02:05:08.823Z,542.00
2023-04-02T02:05:58.835Z,537.00
2023-04-02T02:06:48.906Z,542.00
2023-04-02T02:07:38.976Z,530.00
2023-04-02T02:08:29.029Z,541.00
2023-04-02T02:09:19.099Z,556.00
2023-04-02T02:10:09.173Z,543.00
2023-04-02T02:10:59.242Z,542.00
2023-04-02T02:11:49.305Z,530.00
2023-04-02T02:12:39.381Z,536.00
2023-04-02T02:13:29.574Z,540.00
2023-04-02T02:14:19.643Z,537.00
2023-04-02T02:15:09.734Z,541.00
2023-04-02T02:15:59.933Z,544.00
2023-04-02T02:16:49.914Z,534.00
2023-04-02T02:17:39.854Z,541.00
2023-04-02T02:18:29.905Z,556.00
2023-04-02T02:19:19.967Z,551.00
2023-04-02T02:20:10.184Z,554.00
2023-04-02T02:21:00.233Z,547.00
2023-04-02T02:21:50.304Z,552.00
2023-04-02T02:22:40.658Z,552.00
2023-04-02T02:23:30.702Z,535.00
2023-04-02T02:24:20.773Z,532.00
2023-04-02T02:25:11.060Z,521.00
2023-04-02T02:26:01.087Z,525.00
2023-04-02T02:26:51.153Z,536.00
2023-04-02T02:27:41.221Z,540.00
2023-04-02T02:28:31.260Z,541.00
2023-04-02T02:29:21.310Z,539.00
2023-04-02T02:30:11.404Z,531.00
2023-04-02T02:31:01.463Z,535.00
2023-04-02T02:31:51.473Z,537.00
2023-04-02T02:32:41.608Z,543.00
2023-04-02T02:33:31.570Z,542.00
2023-04-02T02:34:21.892Z,543.00
2023-04-02T02:35:11.945Z,539.00
2023-04-02T02:36:01.990Z,531.00
2023-04-02T02:36:52.037Z,528.00
2023-04-02T02:37:42.118Z,536.00
2023-04-02T02:38:32.144Z,545.00
2023-04-02T02:39:22.219Z,542.00
2023-04-02T02:40:12.261Z,532.00
2023-04-02T02:41:02.303Z,522.00
2023-04-02T02:41:52.348Z,539.00
2023-04-02T02:42:42.411Z,529.00
2023-04-02T02:43:32.440Z,522.00
2023-04-02T02:44:22.549Z,517.00
2023-04-02T02:45:12.575Z,522.00
2023-04-02T02:46:02.694Z,517.00
2023-04-02T02:46:52.752Z,528.00
2023-04-02T02:47:42.726Z,527.00
2023-04-02T02:48:32.765Z,528.00
2023-04-02T02:49:22.842Z,531.00
2023-04-02T02:50:13.130Z,528.00
2023-04-02T02:51:03.157Z,527.00
2023-04-02T02:51:53.218Z,522.00
2023-04-02T02:52:43.287Z,530.00
2023-04-02T02:53:33.361Z,528.00
2023-04-02T02:54:23.436Z,520.00
2023-04-02T02:55:13.512Z,531.00
2023-04-02T02:56:03.539Z,531.00
2023-04-02T02:56:53.659Z,536.00
2023-04-02T02:57:43.662Z,530.00
2023-04-02T02:58:33.677Z,528.00
2023-04-02T02:59:24.043Z,527.00
2023-04-02T03:00:13.972Z,528.00
2023-04-02T03:01:04.059Z,529.00
2023-04-02T03:01:54.360Z,537.00
2023-04-02T03:02:44.548Z,534.00
2023-04-02T03:03:34.789Z,547.00
2023-04-02T03:04:24.908Z,536.00
2023-04-02T03:05:14.859Z,532.00
2023-04-02T03:06:04.932Z,527.00
2023-04-02T03:06:55.234Z,535.00
2023-04-02T03:07:45.287Z,535.00
2023-04-02T03:08:35.303Z,536.00
2023-04-02T03:09:25.378Z,530.00
2023-04-02T03:10:15.455Z,529.00
2023-04-02T03:11:05.486Z,525.00
2023-04-02T03:11:55.554Z,531.00
2023-04-02T03:12:45.634Z,543.00
2023-04-02T03:13:35.853Z,533.00
2023-04-02T03:14:25.736Z,544.00
2023-04-02T03:15:15.822Z,548.00
2023-04-02T03:16:06.062Z,548.00
2023-04-02T03:16:56.096Z,553.00
2023-04-02T03:17:46.216Z,547.00
2023-04-02T03:18:36.220Z,536.00
2023-04-02T03:19:26.272Z,519.00
2023-04-02T03:20:16.353Z,536.00
2023-04-02T03:21:06.380Z,531.00
2023-04-02T03:21:56.445Z,525.00
2023-04-02T03:22:46.534Z,516.00
2023-04-02T03:23:36.589Z,520.00
2023-04-02T03:24:26.716Z,526.00
2023-04-02T03:25:16.856Z,533.00
2023-04-02T03:26:06.927Z,527.00
2023-04-02T03:26:56.947Z,526.00
2023-04-02T03:27:47.014Z,533.00
2023-04-02T03:28:37.078Z,530.00
2023-04-02T03:29:27.180Z,541.00
2023-04-02T03:30:17.224Z,534.00
2023-04-02T03:31:07.302Z,549.00
2023-04-02T03:31:57.286Z,541.00
2023-04-02T03:32:47.374Z,534.00
2023-04-02T03:33:37.413Z,526.00
2023-04-02T03:34:27.763Z,526.00
2023-04-02T03:35:17.824Z,521.00
2023-04-02T03:36:07.885Z,533.00
2023-04-02T03:36:58.170Z,532.00
2023-04-02T03:37:48.261Z,539.00
2023-04-02T03:38:38.301Z,549.00
2023-04-02T03:39:28.579Z,532.00
2023-04-02T03:40:18.631Z,543.00
2023-04-02T03:41:08.667Z,542.00
2023-04-02T03:41:58.755Z,544.00
2023-04-02T03:42:48.794Z,542.00
2023-04-02T03:43:38.856Z,544.00
2023-04-02T03:44:28.926Z,542.00
2023-04-02T03:45:19.005Z,530.00
2023-04-02T03:46:09.039Z,532.00
2023-04-02T03:46:59.098Z,536.00
2023-04-02T03:47:49.194Z,535.00
2023-04-02T03:48:39.393Z,535.00
2023-04-02T03:49:29.489Z,536.00
2023-04-02T03:50:19.544Z,532.00
2023-04-02T03:51:09.606Z,525.00
2023-04-02T03:51:59.631Z,536.00
2023-04-02T03:52:49.711Z,515.00
2023-04-02T03:53:39.774Z,522.00
2023-04-02T03:54:29.852Z,526.00
2023-04-02T03:55:19.923Z,532.00
2023-04-02T03:56:09.954Z,526.00
2023-04-02T03:57:00.096Z,530.00
2023-04-02T03:57:50.270Z,526.00
2023-04-02T03:58:40.334Z,523.00
2023-04-02T03:59:30.410Z,525.00
2023-04-02T04:00:20.762Z,524.00
2023-04-02T04:01:10.778Z,520.00
2023-04-02T04:02:00.921Z,521.00
2023-04-02T04:02:50.992Z,523.00
2023-04-02T04:03:41.000Z,526.00
2023-04-02T04:04:31.166Z,519.00
2023-04-02T04:05:21.161Z,515.00
2023-04-02T04:06:11.161Z,515.00
2023-04-02T04:07:01.221Z,519.00
2023-04-02T04:07:51.296Z,512.00
2023-04-02T04:08:41.362Z,505.00
2023-04-02T04:09:31.693Z,510.00
2023-04-02T04:10:21.764Z,502.00
2023-04-02T04:11:11.906Z,511.00
2023-04-02T04:12:02.123Z,505.00
2023-04-02T04:12:52.202Z,510.00
2023-04-02T04:13:42.252Z,512.00
2023-04-02T04:14:32.320Z,515.00
2023-04-02T04:15:22.400Z,515.00
2023-04-02T04:16:12.462Z,524.00
2023-04-02T04:17:02.504Z,522.00
2023-04-02T04:17:52.596Z,526.00
2023-04-02T04:18:42.644Z,526.00
2023-04-02T04:19:32.707Z,526.00
2023-04-02T04:20:22.794Z,532.00
2023-04-02T04:21:12.979Z,535.00
2023-04-02T04:22:03.022Z,529.00
2023-04-02T04:22:53.096Z,529.00
2023-04-02T04:23:43.428Z,519.00
2023-04-02T04:24:33.495Z,525.00
2023-04-02T04:25:23.579Z,526.00
2023-04-02T04:26:13.602Z,528.00
2023-04-02T04:27:03.682Z,528.00
2023-04-02T04:27:53.731Z,535.00
2023-04-02T04:28:43.783Z,540.00
2023-04-02T04:29:33.854Z,536.00
2023-04-02T04:30:23.921Z,531.00
2023-04-02T04:31:13.988Z,538.00
2023-04-02T04:32:04.054Z,544.00
2023-04-02T04:32:54.294Z,539.00
2023-04-02T04:33:44.356Z,543.00
2023-04-02T04:34:34.443Z,538.00
2023-04-02T04:35:24.730Z,537.00
2023-04-02T04:36:14.857Z,531.00
2023-04-02T04:37:04.858Z,525.00
2023-04-02T04:37:54.900Z,531.00
2023-04-02T04:38:44.960Z,544.00
2023-04-02T04:39:35.023Z,547.00
2023-04-02T04:40:25.112Z,536.00
2023-04-02T04:41:15.141Z,537.00
2023-04-02T04:42:05.231Z,529.00
2023-04-02T04:42:55.297Z,535.00
2023-04-02T04:43:45.316Z,535.00
2023-04-02T04:44:35.567Z,527.00
2023-04-02T04:45:25.659Z,535.00
2023-04-02T04:46:15.699Z,534.00
2023-04-02T04:47:05.703Z,539.00
2023-04-02T04:47:55.821Z,536.00
2023-04-02T04:48:45.824Z,537.00
2023-04-02T04:49:35.908Z,541.00
2023-04-02T04:50:25.959Z,540.00
2023-04-02T04:51:16.036Z,533.00
2023-04-02T04:52:06.101Z,537.00
2023-04-02T04:52:56.208Z,530.00
2023-04-02T04:53:46.378Z,538.00
2023-04-02T04:54:36.462Z,535.00
2023-04-02T04:55:26.502Z,541.00
2023-04-02T04:56:19.504Z,537.00
2023-04-02T04:57:06.600Z,537.00
2023-04-02T04:57:56.641Z,537.00
2023-04-02T04:58:46.688Z,537.00
2023-04-02T04:59:36.763Z,539.00
2023-04-02T05:00:26.999Z,543.00
2023-04-02T05:01:17.110Z,545.00
2023-04-02T05:02:07.103Z,536.00
2023-04-02T05:02:57.220Z,541.00
2023-04-02T05:03:47.217Z,539.00
2023-04-02T05:04:37.459Z,539.00
2023-04-02T05:05:27.334Z,550.00
2023-04-02T05:06:17.372Z,541.00
2023-04-02T05:07:07.458Z,542.00
2023-04-02T05:07:59.103Z,546.00
2023-04-02T05:08:47.563Z,539.00
2023-04-02T05:09:37.598Z,546.00
2023-04-02T05:10:27.723Z,545.00
2023-04-02T05:11:17.738Z,541.00
2023-04-02T05:12:07.807Z,548.00
2023-04-02T05:12:58.123Z,547.00
2023-04-02T05:13:48.181Z,549.00
2023-04-02T05:14:38.247Z,543.00
2023-04-02T05:15:28.580Z,545.00
2023-04-02T05:16:18.662Z,545.00
2023-04-02T05:17:08.680Z,550.00
2023-04-02T05:17:58.762Z,544.00
2023-04-02T05:18:48.806Z,539.00
2023-04-02T05:19:38.889Z,546.00
2023-04-02T05:20:28.953Z,539.00
2023-04-02T05:21:18.981Z,551.00
2023-04-02T05:22:09.046Z,543.00
2023-04-02T05:22:59.103Z,545.00
2023-04-02T05:23:49.179Z,546.00
2023-04-02T05:24:39.425Z,548.00
2023-04-02T05:25:29.487Z,542.00
2023-04-02T05:26:19.539Z,544.00
2023-04-02T05:27:09.820Z,549.00
2023-04-02T05:27:59.876Z,545.00
2023-04-02T05:28:49.962Z,545.00
2023-04-02T05:29:39.994Z,547.00
2023-04-02T05:30:30.073Z,546.00
2023-04-02T05:31:20.173Z,545.00
2023-04-02T05:32:10.200Z,541.00
2023-04-02T05:33:00.362Z,548.00
2023-04-02T05:33:50.339Z,544.00
2023-04-02T05:34:40.406Z,547.00
2023-04-02T05:35:30.476Z,540.00
2023-04-02T05:36:20.688Z,554.00
2023-04-02T05:37:10.680Z,544.00
2023-04-02T05:38:00.746Z,549.00
2023-04-02T05:38:51.074Z,545.00
2023-04-02T05:39:41.168Z,543.00
2023-04-02T05:40:31.226Z,541.00
2023-04-02T05:41:21.253Z,539.00
2023-04-02T05:42:11.314Z,542.00
2023-04-02T05:43:01.379Z,546.00
2023-04-02T05:43:51.437Z,548.00
2023-04-02T05:44:41.509Z,552.00
2023-04-02T05:45:31.595Z,543.00
2023-04-02T05:46:21.645Z,546.00
2023-04-02T05:47:11.679Z,553.00
2023-04-02T05:48:02.191Z,541.00
2023-04-02T05:48:51.903Z,547.00
2023-04-02T05:49:41.975Z,552.00
2023-04-02T05:50:32.052Z,549.00
2023-04-02T05:51:22.111Z,550.00
2023-04-02T05:52:12.155Z,545.00
2023-04-02T05:53:02.241Z,562.00
2023-04-02T05:53:52.270Z,552.00
2023-04-02T05:54:42.336Z,549.00
2023-04-02T05:55:32.607Z,548.00
2023-04-02T05:56:22.438Z,556.00
2023-04-02T05:57:12.792Z,548.00
2023-04-02T05:58:53.009Z,549.00
2023-04-02T05:59:42.978Z,549.00
2023-04-02T06:00:33.053Z,549.00
2023-04-02T06:01:23.378Z,551.00
2023-04-02T06:02:13.444Z,545.00
2023-04-02T06:03:03.538Z,553.00
2023-04-02T06:03:53.670Z,553.00
2023-04-02T06:04:43.593Z,550.00
2023-04-02T06:05:33.897Z,550.00
2023-04-02T06:06:23.700Z,543.00
2023-04-02T06:07:13.759Z,554.00
2023-04-02T06:08:03.877Z,548.00
2023-04-02T06:08:53.909Z,545.00
2023-04-02T06:09:43.976Z,547.00
2023-04-02T06:10:34.073Z,551.00
2023-04-02T06:11:24.108Z,548.00
2023-04-02T06:12:14.148Z,550.00
2023-04-02T06:13:04.217Z,550.00
2023-04-02T06:13:54.287Z,555.00
2023-04-02T06:14:44.364Z,544.00
2023-04-02T06:15:34.599Z,552.00
2023-04-02T06:16:24.469Z,555.00
2023-04-02T06:17:14.671Z,544.00
2023-04-02T06:18:04.770Z,552.00
2023-04-02T06:18:54.768Z,562.00
2023-04-02T06:19:44.838Z,550.00
2023-04-02T06:20:34.931Z,571.00
2023-04-02T06:21:24.962Z,556.00
2023-04-02T06:22:14.984Z,558.00
2023-04-02T06:23:05.054Z,555.00
2023-04-02T06:23:55.117Z,551.00
2023-04-02T06:24:45.183Z,560.00
2023-04-02T06:25:35.562Z,553.00
2023-04-02T06:26:25.553Z,552.00
2023-04-02T06:27:15.570Z,555.00
2023-04-02T06:28:05.650Z,555.00
2023-04-02T06:28:55.967Z,555.00
2023-04-02T06:29:46.025Z,559.00
2023-04-02T06:30:36.191Z,557.00
2023-04-02T06:31:26.458Z,558.00
2023-04-02T06:32:16.450Z,551.00
2023-04-02T06:33:06.587Z,544.00
2023-04-02T06:33:56.836Z,550.00
2023-04-02T06:34:46.900Z,553.00
2023-04-02T06:35:37.438Z,555.00
2023-04-02T06:36:27.021Z,548.00
2023-04-02T06:37:17.081Z,559.00
2023-04-02T06:38:07.152Z,551.00
2023-04-02T06:38:57.173Z,548.00
2023-04-02T06:39:47.247Z,549.00
2023-04-02T06:40:37.348Z,544.00
2023-04-02T06:41:27.387Z,547.00
2023-04-02T06:42:17.429Z,548.00
2023-04-02T06:43:07.660Z,549.00
2023-04-02T06:43:57.723Z,541.00
2023-04-02T06:44:47.792Z,551.00
2023-04-02T06:45:38.132Z,552.00
2023-04-02T06:46:28.169Z,551.00
2023-04-02T06:47:18.201Z,543.00
2023-04-02T06:48:08.286Z,546.00
2023-04-02T06:48:58.296Z,550.00
2023-04-02T06:49:48.390Z,550.00
2023-04-02T06:50:38.441Z,552.00
2023-04-02T06:51:28.486Z,552.00
2023-04-02T06:52:18.516Z,548.00
2023-04-02T06:53:08.576Z,556.00
2023-04-02T06:53:58.635Z,553.00
2023-04-02T06:54:48.911Z,546.00
2023-04-02T06:55:39.334Z,551.00
2023-04-02T06:56:29.008Z,544.00
2023-04-02T06:57:19.429Z,550.00
2023-04-02T06:58:09.391Z,549.00
2023-04-02T06:58:59.460Z,550.00
2023-04-02T06:59:49.532Z,554.00
2023-04-02T07:00:39.630Z,552.00
2023-04-02T07:01:29.726Z,556.00
2023-04-02T07:02:19.709Z,553.00
2023-04-02T07:03:09.768Z,557.00
2023-04-02T07:03:59.796Z,557.00
2023-04-02T07:04:49.852Z,551.00
2023-04-02T07:05:42.544Z,565.00
2023-04-02T07:06:29.915Z,558.00
2023-04-02T07:07:19.981Z,564.00
2023-04-02T07:08:10.064Z,565.00
2023-04-02T07:09:00.108Z,563.00
2023-04-02T07:09:50.290Z,565.00
2023-04-02T07:10:40.388Z,554.00
2023-04-02T07:11:30.413Z,567.00
2023-04-02T07:12:20.757Z,565.00
2023-04-02T07:13:10.797Z,561.00
2023-04-02T07:14:00.864Z,561.00
2023-04-02T07:14:51.188Z,567.00
2023-04-02T07:15:41.269Z,559.00
2023-04-02T07:16:31.435Z,556.00
2023-04-02T07:17:21.381Z,563.00
2023-04-02T07:18:11.414Z,567.00
2023-04-02T07:19:01.447Z,562.00
2023-04-02T07:19:51.535Z,571.00
2023-04-02T07:20:41.552Z,579.00
2023-04-02T07:21:31.578Z,577.00
2023-04-02T07:22:21.666Z,587.00
2023-04-02T07:23:11.704Z,586.00
2023-04-02T07:24:02.027Z,588.00
2023-04-02T07:24:52.101Z,599.00
2023-04-02T07:25:42.142Z,593.00
2023-04-02T07:26:32.173Z,587.00
2023-04-02T07:27:22.220Z,594.00
2023-04-02T07:28:12.270Z,598.00
2023-04-02T07:29:02.315Z,597.00
2023-04-02T07:29:52.401Z,603.00
2023-04-02T07:30:42.445Z,603.00
2023-04-02T07:31:32.540Z,600.00
2023-04-02T07:32:22.510Z,597.00
2023-04-02T07:33:12.882Z,597.00
2023-04-02T07:34:02.872Z,597.00
2023-04-02T07:34:52.940Z,588.00
2023-04-02T07:35:43.063Z,595.00
2023-04-02T07:36:33.063Z,594.00
2023-04-02T07:37:23.134Z,590.00
2023-04-02T07:38:13.215Z,594.00
2023-04-02T07:39:03.236Z,598.00
2023-04-02T07:39:53.314Z,597.00
2023-04-02T07:40:43.391Z,598.00
2023-04-02T07:41:33.427Z,597.00
2023-04-02T07:42:23.483Z,594.00
2023-04-02T07:43:13.558Z,598.00
2023-04-02T07:44:03.652Z,595.00
2023-04-02T07:44:53.716Z,600.00
2023-04-02T07:45:43.794Z,599.00
2023-04-02T07:46:33.876Z,601.00
2023-04-02T07:47:23.907Z,604.00
2023-04-02T07:48:13.977Z,606.00
2023-04-02T07:49:04.115Z,606.00
2023-04-02T07:49:54.188Z,611.00
2023-04-02T07:50:44.225Z,612.00
2023-04-02T07:51:34.258Z,612.00
2023-04-02T07:52:24.329Z,616.00
2023-04-02T07:53:14.374Z,616.00
2023-04-02T07:54:04.405Z,611.00
2023-04-02T07:54:54.476Z,616.00
2023-04-02T07:55:44.550Z,612.00
2023-04-02T07:56:34.577Z,625.00
2023-04-02T07:57:24.672Z,616.00
2023-04-02T07:58:14.967Z,626.00
2023-04-02T07:59:05.051Z,616.00
2023-04-02T07:59:55.124Z,627.00
2023-04-02T08:00:45.444Z,626.00
2023-04-02T08:01:35.507Z,631.00
2023-04-02T08:02:25.546Z,635.00
2023-04-02T08:03:15.704Z,633.00
2023-04-02T08:04:05.657Z,630.00
2023-04-02T08:04:55.662Z,637.00
2023-04-02T08:05:45.752Z,624.00
2023-04-02T08:06:35.793Z,628.00
2023-04-02T08:07:25.962Z,630.00
2023-04-02T08:08:16.039Z,629.00
2023-04-02T08:09:06.107Z,634.00
2023-04-02T08:09:56.409Z,640.00
2023-04-02T08:10:46.448Z,637.00
2023-04-02T08:11:36.491Z,636.00
2023-04-02T08:12:26.515Z,634.00
2023-04-02T08:13:16.584Z,637.00
2023-04-02T08:14:06.655Z,634.00
2023-04-02T08:14:56.728Z,638.00
2023-04-02T08:15:46.825Z,634.00
2023-04-02T08:16:36.945Z,632.00
2023-04-02T08:17:26.917Z,631.00
2023-04-02T08:18:16.982Z,635.00
2023-04-02T08:19:07.219Z,630.00
2023-04-02T08:19:57.298Z,639.00
2023-04-02T08:20:47.372Z,632.00
2023-04-02T08:21:37.411Z,640.00
2023-04-02T08:22:27.444Z,637.00
2023-04-02T08:23:17.518Z,634.00
2023-04-02T08:24:07.574Z,633.00
2023-04-02T08:24:57.646Z,635.00
2023-04-02T08:25:47.742Z,642.00
2023-04-02T08:26:37.770Z,640.00
2023-04-02T08:27:27.797Z,649.00
2023-04-02T08:28:18.089Z,645.00
2023-04-02T08:29:08.172Z,638.00
2023-04-02T08:29:58.242Z,640.00
2023-04-02T08:30:48.630Z,641.00
2023-04-02T08:31:38.645Z,648.00
2023-04-02T08:32:28.671Z,646.00
2023-04-02T08:33:18.705Z,651.00
2023-04-02T08:34:08.708Z,652.00
2023-04-02T08:34:58.782Z,648.00
2023-04-02T08:35:48.900Z,639.00
2023-04-02T08:36:38.916Z,636.00
2023-04-02T08:37:28.999Z,651.00
2023-04-02T08:38:19.055Z,651.00
2023-04-02T08:39:09.059Z,648.00
2023-04-02T08:39:59.349Z,649.00
2023-04-02T08:40:49.421Z,647.00
2023-04-02T08:41:39.469Z,642.00
2023-04-02T08:42:29.514Z,647.00
2023-04-02T08:43:20.777Z,659.00
2023-04-02T08:44:09.769Z,652.00
2023-04-02T08:45:02.333Z,651.00
2023-04-02T08:45:49.908Z,649.00
2023-04-02T08:46:39.988Z,652.00
2023-04-02T08:47:30.052Z,644.00
2023-04-02T08:48:20.068Z,642.00
2023-04-02T08:49:10.127Z,647.00
2023-04-02T08:50:00.200Z,649.00
2023-04-02T08:50:50.495Z,645.00
2023-04-02T08:51:40.570Z,637.00
2023-04-02T08:52:30.641Z,650.00
2023-04-02T08:53:20.661Z,656.00
2023-04-02T08:54:10.732Z,642.00
2023-04-02T08:55:00.818Z,646.00
2023-04-02T08:55:50.865Z,644.00
2023-04-02T08:56:40.947Z,643.00
2023-04-02T08:57:31.091Z,645.00
2023-04-02T08:58:21.012Z,654.00
2023-04-02T08:59:11.080Z,644.00
2023-04-02T09:00:01.381Z,646.00
2023-04-02T09:00:51.426Z,637.00
2023-04-02T09:01:41.602Z,646.00
2023-04-02T09:02:31.999Z,646.00
2023-04-02T09:03:21.868Z,640.00
2023-04-02T09:04:11.936Z,645.00
2023-04-02T09:05:02.372Z,646.00
2023-04-02T09:05:52.301Z,643.00
2023-04-02T09:06:42.372Z,645.00
2023-04-02T09:07:32.664Z,650.00
2023-04-02T09:08:22.694Z,648.00
2023-04-02T09:09:12.761Z,651.00
2023-04-02T09:10:02.802Z,649.00
2023-04-02T09:10:52.813Z,654.00
2023-04-02T09:11:42.887Z,642.00
2023-04-02T09:12:32.972Z,644.00
2023-04-02T09:13:23.004Z,653.00
2023-04-02T09:14:13.024Z,652.00
2023-04-02T09:15:03.092Z,642.00
2023-04-02T09:15:53.205Z,646.00
2023-04-02T09:16:43.206Z,645.00
2023-04-02T09:17:42.610Z,649.00
2023-04-02T09:18:24.344Z,649.00
2023-04-02T09:19:13.342Z,649.00
2023-04-02T09:20:03.430Z,653.00
2023-04-02T09:20:53.452Z,660.00
2023-04-02T09:21:43.515Z,685.00
2023-04-02T09:22:33.550Z,742.00
2023-04-02T09:23:23.589Z,767.00
2023-04-02T09:24:13.898Z,809.00
2023-04-02T09:25:03.978Z,823.00
2023-04-02T09:26:03.467Z,818.00
2023-04-02T09:26:45.084Z,818.00
2023-04-02T09:27:34.159Z,820.00
2023-04-02T09:28:24.172Z,830.00
2023-04-02T09:29:14.223Z,837.00
2023-04-02T09:30:04.299Z,845.00
2023-04-02T09:30:54.362Z,849.00
2023-04-02T09:31:44.510Z,879.00
2023-04-02T09:32:34.679Z,839.00
2023-04-02T09:33:24.720Z,852.00
2023-04-02T09:34:14.752Z,838.00
2023-04-02T09:35:12.242Z,844.00
2023-04-02T09:35:56.155Z,839.00
2023-04-02T09:36:45.221Z,842.00
2023-04-02T09:37:35.294Z,839.00
2023-04-02T09:38:25.355Z,844.00
2023-04-02T09:39:15.427Z,843.00
2023-04-02T09:40:05.492Z,841.00
2023-04-02T09:40:55.579Z,825.00
2023-04-02T09:41:52.600Z,822.00
2023-04-02T09:42:36.751Z,822.00
2023-04-02T09:43:25.846Z,824.00
2023-04-02T09:44:15.865Z,812.00
2023-04-02T09:45:05.927Z,802.00
2023-04-02T09:45:55.964Z,818.00
2023-04-02T09:46:46.023Z,802.00
2023-04-02T09:47:37.183Z,815.00
2023-04-02T09:48:26.295Z,791.00
2023-04-02T09:49:16.342Z,780.00
2023-04-02T09:50:06.400Z,781.00
2023-04-02T09:50:56.440Z,785.00
2023-04-02T09:51:46.512Z,769.00
2023-04-02T09:52:36.796Z,771.00
2023-04-02T09:53:26.879Z,766.00
2023-04-02T09:54:16.906Z,754.00
2023-04-02T09:55:06.986Z,748.00
2023-04-02T09:55:57.046Z,746.00
2023-04-02T09:56:47.152Z,737.00
2023-04-02T09:57:37.199Z,751.00
2023-04-02T09:58:27.292Z,744.00
2023-04-02T09:59:17.316Z,721.00
2023-04-02T10:00:10.257Z,723.00
2023-04-02T10:00:57.473Z,724.00
2023-04-02T10:01:47.535Z,720.00
2023-04-02T10:02:37.585Z,711.00
2023-04-02T10:03:27.607Z,712.00
2023-04-02T10:04:17.715Z,718.00
2023-04-02T10:05:07.769Z,709.00
2023-04-02T10:05:57.818Z,690.00
2023-04-02T10:06:47.882Z,689.00
2023-04-02T10:07:38.108Z,690.00
2023-04-02T10:08:28.192Z,687.00
2023-04-02T10:09:18.187Z,688.00
2023-04-02T10:10:08.259Z,686.00
2023-04-02T10:10:58.324Z,676.00
2023-04-02T10:11:48.405Z,669.00
2023-04-02T10:12:38.426Z,666.00
2023-04-02T10:13:28.472Z,671.00
2023-04-02T10:14:18.505Z,669.00
2023-04-02T10:15:08.585Z,662.00
2023-04-02T10:15:58.658Z,656.00
2023-04-02T10:16:49.041Z,659.00
2023-04-02T10:17:39.055Z,665.00
2023-04-02T10:18:29.126Z,659.00
2023-04-02T10:19:19.151Z,653.00
2023-04-02T10:20:09.211Z,648.00
2023-04-02T10:20:59.297Z,659.00
2023-04-02T10:21:49.336Z,651.00
2023-04-02T10:22:39.410Z,653.00
2023-04-02T10:23:29.501Z,646.00
2023-04-02T10:24:19.517Z,650.00
2023-04-02T10:25:09.583Z,647.00
2023-04-02T10:25:59.813Z,647.00